Temp: 12.6°C   Baro: 1022.3mb
  Wind: 2.9mph   Dir: NE (54°)
  Rain: 0.0mm (0.0mm/hr)
  Solar: 0W/m2  Hum: 82%

Historic data

Bath Spa Weather Station Historical Data
Daily Summary for August 03, 2021 Units:  English    Metric   Both
Daily Weekly Monthly Yearly Custom
  High: Low: Average:
Temperature: 72.1 °F 49.7 °F 59 °F
Dew Point: 58.6 °F 48.6 °F 53.5 °F
Humidity: 95% 53.2% 81%
Wind Speed: 6.6mph 0mph 1.5mph
Wind Gust: 11mph - -
Wind- - South
Pressure: 29.96 in 29.88 in -
Precipitation: 0.00 in    
Historical Graphs
 
 
Tabular Data for August 03, 2021
Time Temperature Dew Point Pressure Wind Wind Speed Wind Gust Humidity Rainfall Rate (Hourly) solar
00:04 54.9 °F 53.2 °F 29.95 in Calm   2 mph 91% 0.00 in 0 W/m2
00:09 54.9 °F 53.2 °F 29.95 in ENE 0.2 mph 1 mph 91% 0.00 in 0 W/m2
00:14 54.7 °F 53.1 °F 29.95 in Calm     91% 0.00 in 0 W/m2
00:19 54.5 °F 52.9 °F 29.95 in Calm     91% 0.00 in 0 W/m2
00:24 54.3 °F 52.7 °F 29.95 in Calm     91% 0.00 in 0 W/m2
00:29 54.1 °F 52.4 °F 29.95 in Calm     91% 0.00 in 0 W/m2
00:34 54 °F 52.3 °F 29.95 in Calm     91% 0.00 in 0 W/m2
00:38 53.8 °F 52.2 °F 29.95 in Calm     91% 0.00 in 0 W/m2
00:44 53.7 °F 52.1 °F 29.95 in ENE 0.2 mph 1 mph 91% 0.00 in 0 W/m2
00:49 53.4 °F 51.8 °F 29.95 in Calm   1 mph 91% 0.00 in 0 W/m2
00:54 53.4 °F 52 °F 29.95 in Calm     91.8% 0.00 in 0 W/m2
00:59 53.2 °F 51.7 °F 29.95 in Calm     91.4% 0.00 in 0 W/m2
01:04 53.1 °F 51.4 °F 29.95 in Calm     91% 0.00 in 0 W/m2
01:09 53 °F 51.4 °F 29.95 in Calm   1 mph 91.6% 0.00 in 0 W/m2
01:14 52.9 °F 51.4 °F 29.95 in ENE 0.5 mph 2 mph 92% 0.00 in 0 W/m2
01:19 52.6 °F 51.2 °F 29.95 in Calm   1 mph 92% 0.00 in 0 W/m2
01:24 52.5 °F 51.1 °F 29.95 in Calm     92% 0.00 in 0 W/m2
01:29 52.3 °F 50.9 °F 29.95 in Calm     92% 0.00 in 0 W/m2
01:34 52.3 °F 50.9 °F 29.95 in Calm     92% 0.00 in 0 W/m2
01:39 52.2 °F 50.7 °F 29.95 in Calm     92% 0.00 in 0 W/m2
01:44 52.2 °F 50.7 °F 29.95 in Calm     92% 0.00 in 0 W/m2
01:49 52.2 °F 50.7 °F 29.96 in ENE 0.5 mph 2 mph 92% 0.00 in 0 W/m2
01:54 52.2 °F 50.7 °F 29.95 in Calm   2 mph 92% 0.00 in 0 W/m2
01:59 52.2 °F 50.9 °F 29.95 in Calm     92.4% 0.00 in 0 W/m2
02:04 52.1 °F 50.6 °F 29.95 in Calm     92% 0.00 in 0 W/m2
02:09 51.9 °F 50.5 °F 29.95 in Calm     92% 0.00 in 0 W/m2
02:14 51.7 °F 50.4 °F 29.95 in Calm     92.4% 0.00 in 0 W/m2
02:19 51.4 °F 50.4 °F 29.95 in Calm     93% 0.00 in 0 W/m2
02:24 51.4 °F 50.2 °F 29.95 in Calm     92.4% 0.00 in 0 W/m2
02:29 51.3 °F 50.2 °F 29.95 in Calm     93% 0.00 in 0 W/m2
02:34 51.3 °F 50.2 °F 29.95 in Calm     93% 0.00 in 0 W/m2
02:39 51.3 °F 50.2 °F 29.95 in Calm     93% 0.00 in 0 W/m2
02:44 51.2 °F 50.1 °F 29.95 in Calm     93% 0.00 in 0 W/m2
02:49 51.1 °F 50 °F 29.95 in Calm     93% 0.00 in 0 W/m2
02:54 51.1 °F 50 °F 29.95 in Calm     93% 0.00 in 0 W/m2
02:59 51.1 °F 50 °F 29.95 in Calm     93% 0.00 in 0 W/m2
03:04 51.1 °F 50 °F 29.95 in Calm     93% 0.00 in 0 W/m2
03:09 50.9 °F 49.8 °F 29.95 in Calm     93% 0.00 in 0 W/m2
03:14 50.7 °F 49.6 °F 29.95 in Calm     93% 0.00 in 0 W/m2
03:19 50.7 °F 49.6 °F 29.94 in Calm     93% 0.00 in 0 W/m2
03:24 50.7 °F 49.6 °F 29.94 in Calm     93% 0.00 in 0 W/m2
03:29 50.4 °F 49.4 °F 29.94 in Calm     93% 0.00 in 0 W/m2
03:34 50.4 °F 49.3 °F 29.94 in Calm     93% 0.00 in 0 W/m2
03:39 50.4 °F 49.3 °F 29.94 in Calm     93% 0.00 in 0 W/m2
03:44 50.3 °F 49.2 °F 29.93 in Calm     93% 0.00 in 0 W/m2
03:49 50 °F 48.9 °F 29.93 in Calm     93% 0.00 in 0 W/m2
03:54 49.8 °F 48.7 °F 29.93 in Calm     93% 0.00 in 0 W/m2
03:59 49.7 °F 48.7 °F 29.93 in Calm     93% 0.00 in 0 W/m2
04:04 49.7 °F 48.6 °F 29.93 in Calm     93% 0.00 in 0 W/m2
04:09 49.8 °F 48.7 °F 29.93 in Calm     93% 0.00 in 0 W/m2
04:14 49.7 °F 48.7 °F 29.93 in Calm     93.2% 0.00 in 0 W/m2
04:19 49.8 °F 49.1 °F 29.93 in Calm   2 mph 94% 0.00 in 0 W/m2
04:24 49.8 °F 49.1 °F 29.93 in Calm   2 mph 94% 0.00 in 0 W/m2
04:29 49.8 °F 49.1 °F 29.93 in Calm     94% 0.00 in 0 W/m2
04:34 50.1 °F 49.4 °F 29.93 in Calm     94% 0.00 in 0 W/m2
04:39 50.3 °F 49.6 °F 29.93 in Calm   1 mph 94% 0.00 in 0 W/m2
04:44 50.4 °F 49.6 °F 29.93 in Calm   2 mph 94% 0.00 in 0 W/m2
04:49 50.2 °F 49.5 °F 29.93 in Calm   2 mph 94% 0.00 in 0 W/m2
04:54 50.2 °F 49.5 °F 29.93 in Calm     94% 0.00 in 0 W/m2
04:59 50.2 °F 49.5 °F 29.93 in Calm     94% 0.00 in 0 W/m2
05:04 50.4 °F 49.6 °F 29.93 in Calm     94% 0.00 in 0 W/m2
05:09 50.5 °F 49.8 °F 29.93 in Calm     94% 0.00 in 0 W/m2
05:14 50.7 °F 50 °F 29.93 in Calm     94% 0.00 in 0 W/m2
05:19 50.7 °F 50 °F 29.94 in Calm     94% 0.00 in 0 W/m2
05:24 50.5 °F 49.8 °F 29.94 in Calm     94% 0.00 in 0 W/m2
05:29 50.6 °F 49.9 °F 29.94 in Calm     94% 0.00 in 0 W/m2
05:34 50.7 °F 50 °F 29.94 in Calm     94% 0.00 in 0 W/m2
05:39 50.8 °F 50.1 °F 29.94 in Calm     94% 0.00 in 0 W/m2
05:44 51.1 °F 50.4 °F 29.94 in Calm     94% 0.00 in 0 W/m2
05:49 51.2 °F 50.4 °F 29.94 in Calm     94% 0.00 in 5 W/m2
05:54 51.3 °F 50.5 °F 29.94 in Calm     94% 0.00 in 5 W/m2
05:59 51.3 °F 50.6 °F 29.94 in Calm   1 mph 94% 0.00 in 9 W/m2
06:04 51.4 °F 50.7 °F 29.94 in Calm   1 mph 94% 0.00 in 11 W/m2
06:09 51.5 °F 50.8 °F 29.94 in Calm     94% 0.00 in 14 W/m2
06:14 51.6 °F 50.9 °F 29.94 in Calm     94% 0.00 in 14 W/m2
06:19 51.7 °F 51 °F 29.94 in Calm     94% 0.00 in 16 W/m2
06:24 51.7 °F 51 °F 29.94 in Calm     94% 0.00 in 19 W/m2
06:29 51.8 °F 51.1 °F 29.95 in Calm     94% 0.00 in 30 W/m2
06:34 52 °F 51.3 °F 29.95 in East 0.9 mph 3 mph 94% 0.00 in 32 W/m2
06:39 52 °F 51.3 °F 29.95 in East 1.5 mph 4 mph 94.2% 0.00 in 39 W/m2
06:44 51.6 °F 51 °F 29.95 in East 1 mph 4 mph 94.4% 0.00 in 44 W/m2
06:49 51.6 °F 51.1 °F 29.95 in East 0.4 mph 3 mph 94.8% 0.00 in 44 W/m2
06:54 51.6 °F 51.1 °F 29.95 in East 0.6 mph 3 mph 95% 0.00 in 47 W/m2
06:59 51.6 °F 51.1 °F 29.95 in East 0.5 mph 3 mph 95% 0.00 in 47 W/m2
07:04 51.8 °F 51.3 °F 29.95 in East 0.6 mph 3 mph 94.8% 0.00 in 60 W/m2
07:09 51.7 °F 51.2 °F 29.95 in East 1.1 mph 4 mph 94.8% 0.00 in 58 W/m2
07:14 51.7 °F 51.2 °F 29.95 in East 1.4 mph 3 mph 95% 0.00 in 58 W/m2
07:19 51.6 °F 51.1 °F 29.95 in Calm   3 mph 95% 0.00 in 65 W/m2
07:24 51.6 °F 51.1 °F 29.95 in Calm   2 mph 95% 0.00 in 65 W/m2
07:29 51.5 °F 51 °F 29.95 in East 0.5 mph 2 mph 95% 0.00 in 69 W/m2
07:34 51.6 °F 51.1 °F 29.95 in East 0.2 mph 2 mph 95% 0.00 in 79 W/m2
07:39 51.8 °F 51.3 °F 29.96 in East 0.4 mph 1 mph 95% 0.00 in 79 W/m2
07:44 51.8 °F 51.3 °F 29.96 in Calm   1 mph 95% 0.00 in 76 W/m2
07:49 51.9 °F 51.4 °F 29.96 in East 0.2 mph 1 mph 95% 0.00 in 83 W/m2
07:54 52 °F 51.4 °F 29.96 in Calm   1 mph 95% 0.00 in 79 W/m2
07:59 52.2 °F 51.6 °F 29.96 in Calm   1 mph 95% 0.00 in 77 W/m2
08:04 52.2 °F 51.6 °F 29.96 in Calm     95% 0.00 in 79 W/m2
08:09 52.3 °F 51.8 °F 29.96 in Calm   1 mph 95% 0.00 in 83 W/m2
08:14 52.3 °F 51.8 °F 29.96 in Calm     95% 0.00 in 81 W/m2
08:19 52.5 °F 52 °F 29.96 in Calm     95% 0.00 in 100 W/m2
08:24 52.5 °F 52 °F 29.95 in East 0.2 mph 3 mph 95% 0.00 in 127 W/m2
08:29 52.7 °F 52.2 °F 29.95 in East 0.8 mph 3 mph 95% 0.00 in 128 W/m2
08:34 53 °F 52.4 °F 29.95 in East 0.2 mph 1 mph 95% 0.00 in 139 W/m2
08:39 53.1 °F 52.6 °F 29.95 in Calm   2 mph 95% 0.00 in 230 W/m2
08:44 53.4 °F 52.9 °F 29.95 in East 0.4 mph 2 mph 95% 0.00 in 243 W/m2
08:49 53.8 °F 53.2 °F 29.95 in Calm   2 mph 95% 0.00 in 192 W/m2
08:54 53.3 °F 52.8 °F 29.95 in East 0.4 mph 3 mph 95% 0.00 in 179 W/m2
08:59 53.2 °F 52.7 °F 29.95 in East 0.2 mph 2 mph 95% 0.00 in 181 W/m2
09:04 53.2 °F 52.6 °F 29.95 in East 0.8 mph 3 mph 95% 0.00 in 183 W/m2
09:09 53.2 °F 52.7 °F 29.95 in East 0.9 mph 2 mph 95% 0.00 in 197 W/m2
09:14 53.4 °F 52.9 °F 29.95 in East 0.2 mph 2 mph 95% 0.00 in 204 W/m2
09:19 54 °F 53.4 °F 29.96 in East 0.6 mph 5 mph 95% 0.00 in 199 W/m2
09:24 54.1 °F 53.6 °F 29.96 in East 0.2 mph 2 mph 95% 0.00 in 195 W/m2
09:29 53.9 °F 53.3 °F 29.96 in East 1.6 mph 5 mph 95% 0.00 in 193 W/m2
09:34 53.9 °F 53.3 °F 29.96 in East 0.2 mph 5 mph 95% 0.00 in 236 W/m2
09:39 54 °F 53.3 °F 29.96 in East 3.4 mph 6 mph 95% 0.00 in 267 W/m2
09:44 53.8 °F 53.2 °F 29.96 in East 2.1 mph 6 mph 95% 0.00 in 320 W/m2
09:49 54.2 °F 53.7 °F 29.96 in Calm     95% 0.00 in 348 W/m2
09:54 54.8 °F 54.2 °F 29.96 in East 1.9 mph 5 mph 95% 0.00 in 353 W/m2
09:59 54.7 °F 53.9 °F 29.96 in East 0.2 mph 3 mph 94% 0.00 in 343 W/m2
10:04 55.4 °F 54.7 °F 29.96 in East 1.7 mph 6 mph 94% 0.00 in 350 W/m2
10:09 55.9 °F 55.1 °F 29.96 in East 0.6 mph 5 mph 94% 0.00 in 287 W/m2
10:14 56.3 °F 55.4 °F 29.96 in Calm   6 mph 93.6% 0.00 in 301 W/m2
10:19 56.7 °F 55.6 °F 29.96 in Calm   3 mph 93% 0.00 in 285 W/m2
10:24 56.7 °F 55.4 °F 29.96 in East 0.2 mph 2 mph 92.4% 0.00 in 264 W/m2
10:29 56.6 °F 55.1 °F 29.96 in East 0.4 mph 3 mph 91.8% 0.00 in 255 W/m2
10:34 56.8 °F 55.1 °F 29.96 in East 1 mph 5 mph 91% 0.00 in 257 W/m2
10:39 57.6 °F 55.8 °F 29.95 in East 0.6 mph 5 mph 91% 0.00 in 255 W/m2
10:44 57.8 °F 55.9 °F 29.95 in East 1.7 mph 5 mph 90.3% 0.00 in 287 W/m2
10:49 58 °F 56 °F 29.95 in East 0.8 mph 6 mph 90% 0.00 in 343 W/m2
10:54 57.9 °F 55.3 °F 29.95 in East 2.4 mph 7 mph 88.4% 0.00 in 366 W/m2
10:59 57.8 °F 55.1 °F 29.95 in East 1.3 mph 5 mph 88% 0.00 in 350 W/m2
11:04 58.3 °F 55.5 °F 29.95 in East 0.6 mph 3 mph 87.4% 0.00 in 294 W/m2
11:09 58.5 °F 55.2 °F 29.95 in East 2.8 mph 7 mph 86.4% 0.00 in 336 W/m2
11:14 58.6 °F 55.3 °F 29.95 in East 4.7 mph 7 mph 86% 0.00 in 366 W/m2
11:19 58.2 °F 54.8 °F 29.95 in East 1.8 mph 6 mph 85.6% 0.00 in 357 W/m2
11:24 58.5 °F 55.2 °F 29.95 in East 2.4 mph 6 mph 86% 0.00 in 306 W/m2
11:29 59.4 °F 56 °F 29.94 in East 2.8 mph 7 mph 85.8% 0.00 in 323 W/m2
11:34 59.3 °F 55.5 °F 29.94 in East 2 mph 6 mph 84.4% 0.00 in 381 W/m2
11:39 59.5 °F 55.6 °F 29.94 in East 2.5 mph 6 mph 84% 0.00 in 381 W/m2
11:44 60 °F 55.9 °F 29.94 in Calm   2 mph 83.6% 0.00 in 313 W/m2
11:49 60.4 °F 56.1 °F 29.94 in East 1.6 mph 7 mph 83% 0.00 in 301 W/m2
11:53 60.7 °F 56.1 °F 29.94 in Calm   3 mph 82.3% 0.00 in 345 W/m2
11:59 60.6 °F 55.9 °F 29.94 in Calm     82% 0.00 in 367 W/m2
12:04 60.3 °F 55.3 °F 29.94 in East 1.9 mph 6 mph 81.2% 0.00 in 357 W/m2
12:09 60.3 °F 55.5 °F 29.94 in East 2.4 mph 7 mph 81.8% 0.00 in 454 W/m2
12:14 60.8 °F 55.9 °F 29.93 in East 1.8 mph 6 mph 81.6% 0.00 in 622 W/m2
12:19 61.4 °F 56 °F 29.93 in East 1.2 mph 5 mph 80% 0.00 in 1072 W/m2
12:24 62.7 °F 56.7 °F 29.93 in East 2.8 mph 7 mph 78.2% 0.00 in 1046 W/m2
12:29 62.1 °F 55.8 °F 29.93 in East 3.2 mph 7 mph 77.6% 0.00 in 1005 W/m2
12:34 63 °F 56.8 °F 29.93 in East 1 mph 4 mph 77.8% 0.00 in 872 W/m2
12:39 63.2 °F 56.4 °F 29.93 in SSE 3 mph 7 mph 76% 0.00 in 926 W/m2
12:44 63.2 °F 56.6 °F 29.93 in SSE 1.3 mph 4 mph 76.6% 0.00 in 879 W/m2
12:49 63.3 °F 56.3 °F 29.93 in SSE 3.6 mph 5 mph 75.6% 0.00 in 888 W/m2
12:54 62.9 °F 56.3 °F 29.93 in SSE 4.4 mph 8 mph 76.8% 0.00 in 893 W/m2
12:59 63.2 °F 56.6 °F 29.93 in SSE 2.6 mph 7 mph 76.6% 0.00 in 946 W/m2
13:04 64.4 °F 57.5 °F 29.93 in SSE 1 mph 6 mph 75.8% 0.00 in 916 W/m2
13:09 65.9 °F 57.9 °F 29.93 in SSE 1.6 mph 6 mph 73.2% 0.00 in 896 W/m2
13:14 65 °F 57.1 °F 29.93 in SSE 2.4 mph 5 mph 73.2% 0.00 in 921 W/m2
13:18 65.3 °F 57.5 °F 29.93 in SSE 0.5 mph 3 mph 73.3% 0.00 in 939 W/m2
13:24 65.8 °F 57.5 °F 29.93 in SSE 0.4 mph 3 mph 72.4% 0.00 in 904 W/m2
13:29 66 °F 57.4 °F 29.92 in SSE 2.2 mph 5 mph 71.8% 0.00 in 842 W/m2
13:34 64.9 °F 56.3 °F 29.92 in SSE 1.2 mph 5 mph 71.6% 0.00 in 879 W/m2
13:39 65.9 °F 56.9 °F 29.92 in SSE 1.7 mph 6 mph 70.6% 0.00 in 833 W/m2
13:44 66.6 °F 57 °F 29.92 in SSE 1.5 mph 4 mph 69% 0.00 in 847 W/m2
13:49 66.9 °F 56.8 °F 29.92 in SSE 2.8 mph 7 mph 67.8% 0.00 in 838 W/m2
13:54 67.3 °F 57 °F 29.92 in SSE 2.7 mph 6 mph 67.6% 0.00 in 840 W/m2
13:59 66.5 °F 55.9 °F 29.92 in SSE 2.6 mph 5 mph 66.6% 0.00 in 851 W/m2
14:04 67.6 °F 57.1 °F 29.91 in SSE 3.5 mph 8 mph 67% 0.00 in 849 W/m2
14:09 67.6 °F 56.3 °F 29.91 in SSE 2.8 mph 8 mph 65% 0.00 in 860 W/m2
14:14 67.9 °F 56.3 °F 29.91 in SSE 2.7 mph 7 mph 64.4% 0.00 in 926 W/m2
14:19 67.7 °F 56.5 °F 29.91 in SSE 1.7 mph 6 mph 65.4% 0.00 in 926 W/m2
14:24 68.5 °F 56.4 °F 29.91 in SSE 1.6 mph 4 mph 63.4% 0.00 in 332 W/m2
14:29 67.8 °F 56 °F 29.91 in SSE 1.2 mph 4 mph 63.8% 0.00 in 197 W/m2
14:34 67.8 °F 55.5 °F 29.91 in SSE 0.2 mph 2 mph 62.5% 0.00 in 856 W/m2
14:39 68.2 °F 54.7 °F 29.91 in SSE 2.8 mph 7 mph 60.2% 0.00 in 856 W/m2
14:44 68.5 °F 54.4 °F 29.91 in SSE 3.2 mph 7 mph 59% 0.00 in 851 W/m2
14:49 68.4 °F 53.3 °F 29.91 in SSE 3.2 mph 10 mph 56.8% 0.00 in 833 W/m2
14:54 67.9 °F 53.9 °F 29.91 in SSE 4.8 mph 9 mph 58.8% 0.00 in 816 W/m2
14:59 68.1 °F 53.3 °F 29.91 in SSE 3.2 mph 7 mph 57.2% 0.00 in 807 W/m2
15:04 68.6 °F 53.1 °F 29.91 in SSE 3.7 mph 6 mph 56% 0.00 in 807 W/m2
15:09 70.4 °F 54.8 °F 29.91 in SSE 2.8 mph 6 mph 56% 0.00 in 798 W/m2
15:14 71.5 °F 54.5 °F 29.91 in SSE 1.6 mph 5 mph 53.4% 0.00 in 773 W/m2
15:19 69.8 °F 53.8 °F 29.91 in SSE 2.7 mph 6 mph 55% 0.00 in 766 W/m2
15:24 70 °F 54.2 °F 29.90 in SSE 2.4 mph 6 mph 55.6% 0.00 in 759 W/m2
15:29 69.6 °F 54 °F 29.90 in SSE 2 mph 7 mph 55.8% 0.00 in 738 W/m2
15:34 69.6 °F 53.4 °F 29.90 in SSE 2.7 mph 5 mph 54.6% 0.00 in 726 W/m2
15:39 69.9 °F 54.2 °F 29.90 in SSE 3 mph 6 mph 55.8% 0.00 in 722 W/m2
15:44 70.9 °F 54.4 °F 29.90 in SSE 1.1 mph 4 mph 54.2% 0.00 in 715 W/m2
15:49 71.2 °F 54.2 °F 29.90 in SSE 2.7 mph 4 mph 53.4% 0.00 in 717 W/m2
15:54 71.3 °F 54.2 °F 29.90 in SSE 2 mph 5 mph 53.2% 0.00 in 700 W/m2
15:59 71.9 °F 54.8 °F 29.90 in SSE 1.2 mph 4 mph 53.4% 0.00 in 707 W/m2
16:04 72.1 °F 56.5 °F 29.90 in SSE 4 mph 7 mph 56.2% 0.00 in 722 W/m2
16:09 70.7 °F 57.3 °F 29.90 in South 3.6 mph 9 mph 60.6% 0.00 in 721 W/m2
16:14 70.1 °F 57.7 °F 29.89 in WSW 6.4 mph 11 mph 62.8% 0.00 in 717 W/m2
16:19 70.3 °F 58.1 °F 29.89 in West 4 mph 7 mph 63.4% 0.00 in 708 W/m2
16:24 70.3 °F 57.9 °F 29.89 in WSW 5.7 mph 9 mph 63% 0.00 in 664 W/m2
16:29 70.2 °F 57.8 °F 29.90 in West 5 mph 11 mph 63% 0.00 in 661 W/m2
16:34 69.8 °F 58 °F 29.89 in West 6 mph 11 mph 64.2% 0.00 in 649 W/m2
16:39 70.1 °F 58.6 °F 29.89 in WNW 4.7 mph 11 mph 65% 0.00 in 624 W/m2
16:44 70.2 °F 58.1 °F 29.89 in West 6.2 mph 9 mph 63.6% 0.00 in 633 W/m2
16:49 69.5 °F 57.6 °F 29.89 in West 4.7 mph 9 mph 63.8% 0.00 in 606 W/m2
16:54 69.7 °F 57.6 °F 29.89 in WNW 4.9 mph 10 mph 63.2% 0.00 in 589 W/m2
16:59 69.8 °F 58 °F 29.89 in West 5.6 mph 9 mph 64.2% 0.00 in 587 W/m2
17:04 69.6 °F 57.4 °F 29.89 in WSW 5.2 mph 10 mph 63% 0.00 in 582 W/m2
17:09 69.4 °F 57.2 °F 29.89 in WSW 3.4 mph 10 mph 63.2% 0.00 in 566 W/m2
17:14 69.7 °F 57 °F 29.89 in West 5.7 mph 10 mph 62.2% 0.00 in 547 W/m2
17:19 69.4 °F 56.6 °F 29.89 in West 4.1 mph 7 mph 62% 0.00 in 538 W/m2
17:24 69.7 °F 56.8 °F 29.89 in West 3.7 mph 6 mph 61.6% 0.00 in 526 W/m2
17:29 70.1 °F 57 °F 29.89 in West 3 mph 10 mph 61.3% 0.00 in 510 W/m2
17:34 69.9 °F 56.9 °F 29.89 in WNW 4.3 mph 10 mph 61.4% 0.00 in 490 W/m2
17:39 70.3 °F 56.8 °F 29.89 in WNW 3.1 mph 8 mph 60.4% 0.00 in 473 W/m2
17:44 70.1 °F 56.5 °F 29.89 in WNW 4.1 mph 9 mph 60.2% 0.00 in 457 W/m2
17:49 70.2 °F 56.7 °F 29.89 in WNW 4.4 mph 8 mph 60.4% 0.00 in 446 W/m2
17:54 69.7 °F 56.8 °F 29.89 in WNW 6.6 mph 10 mph 61.6% 0.00 in 436 W/m2
17:59 69.3 °F 56.5 °F 29.89 in West 2.8 mph 9 mph 62% 0.00 in 429 W/m2
18:04 69.4 °F 56.4 °F 29.88 in West 4.4 mph 11 mph 61.2% 0.00 in 392 W/m2
18:09 69 °F 56 °F 29.88 in West 4 mph 11 mph 61.6% 0.00 in 199 W/m2
18:14 68.5 °F 56.1 °F 29.89 in West 4.9 mph 10 mph 62.8% 0.00 in 174 W/m2
18:19 68 °F 56.1 °F 29.89 in West 5.4 mph 8 mph 63.6% 0.00 in 302 W/m2
18:24 67.8 °F 56.1 °F 29.89 in West 5 mph 7 mph 64% 0.00 in 258 W/m2
18:29 67.8 °F 56.3 °F 29.89 in West 3.6 mph 7 mph 64.4% 0.00 in 218 W/m2
18:34 67.7 °F 56.2 °F 29.89 in West 5.6 mph 7 mph 64.7% 0.00 in 118 W/m2
18:39 67.4 °F 56 °F 29.89 in West 4.2 mph 7 mph 65% 0.00 in 114 W/m2
18:44 67.3 °F 56.1 °F 29.89 in West 4.5 mph 7 mph 65.4% 0.00 in 125 W/m2
18:49 67.3 °F 55.8 °F 29.89 in West 3.6 mph 7 mph 64.4% 0.00 in 200 W/m2
18:54 67.4 °F 55 °F 29.89 in WNW 6 mph 8 mph 62.6% 0.00 in 188 W/m2
18:59 67.1 °F 54.1 °F 29.89 in WNW 5 mph 8 mph 61.2% 0.00 in 169 W/m2
19:04 67.1 °F 54.2 °F 29.89 in WNW 3.9 mph 7 mph 61.4% 0.00 in 132 W/m2
19:09 67 °F 53.4 °F 29.89 in WNW 6.2 mph 9 mph 59.8% 0.00 in 121 W/m2
19:14 66.7 °F 53 °F 29.89 in WNW 3.1 mph 7 mph 59.2% 0.00 in 100 W/m2
19:19 66.7 °F 53 °F 29.89 in WNW 4.8 mph 8 mph 59.6% 0.00 in 93 W/m2
19:24 66.5 °F 53 °F 29.89 in WNW 3.6 mph 6 mph 60% 0.00 in 79 W/m2
19:29 66.2 °F 53.3 °F 29.90 in WNW 2.2 mph 5 mph 61.2% 0.00 in 69 W/m2
19:34 65.9 °F 53.3 °F 29.90 in WNW 3 mph 6 mph 62% 0.00 in 63 W/m2
19:39 65.8 °F 53.8 °F 29.90 in WNW 2.5 mph 5 mph 63% 0.00 in 65 W/m2
19:44 65.7 °F 53.6 °F 29.90 in WNW 2.4 mph 5 mph 63% 0.00 in 65 W/m2
19:49 65.5 °F 53.4 °F 29.90 in WNW 1.7 mph 5 mph 63% 0.00 in 69 W/m2
19:54 65.5 °F 53.7 °F 29.90 in WNW 2 mph 4 mph 63.8% 0.00 in 67 W/m2
19:59 65.3 °F 53.5 °F 29.90 in WNW 3 mph 6 mph 63.8% 0.00 in 65 W/m2
20:04 65.1 °F 53.8 °F 29.90 in WNW 1.6 mph 6 mph 64.6% 0.00 in 54 W/m2
20:09 65.1 °F 54.1 °F 29.90 in WNW 1.7 mph 4 mph 65.4% 0.00 in 49 W/m2
20:14 64.8 °F 54.4 °F 29.90 in WNW 4 mph 7 mph 67% 0.00 in 40 W/m2
20:19 64.3 °F 54.7 °F 29.90 in WNW 4.6 mph 7 mph 68.8% 0.00 in 35 W/m2
20:24 64 °F 55.1 °F 29.90 in WNW 3 mph 6 mph 70.5% 0.00 in 30 W/m2
20:29 63.8 °F 55.5 °F 29.91 in WNW 2.5 mph 5 mph 72% 0.00 in 25 W/m2
20:34 63.5 °F 55.5 °F 29.91 in WNW 4.8 mph 8 mph 72.8% 0.00 in 19 W/m2
20:39 63.1 °F 55.6 °F 29.91 in WNW 3 mph 5 mph 74% 0.00 in 16 W/m2
20:44 63 °F 55.7 °F 29.91 in WNW 1.6 mph 5 mph 74.8% 0.00 in 11 W/m2
20:49 62.8 °F 55.7 °F 29.91 in WNW 2.6 mph 5 mph 75.2% 0.00 in 7 W/m2
20:54 62.5 °F 55.7 °F 29.91 in WNW 3.9 mph 7 mph 76% 0.00 in 0 W/m2
20:59 62.2 °F 55.5 °F 29.91 in WNW 3 mph 5 mph 76.2% 0.00 in 0 W/m2
21:04 62.1 °F 55.6 °F 29.91 in WNW 2.3 mph 4 mph 77% 0.00 in 0 W/m2
21:09 61.9 °F 55.4 °F 29.91 in WNW 1 mph 4 mph 77% 0.00 in 0 W/m2
21:13 61.8 °F 55.3 °F 29.91 in WNW 1.5 mph 4 mph 77% 0.00 in 0 W/m2
21:19 61.4 °F 55 °F 29.91 in WNW 2 mph 4 mph 77% 0.00 in 0 W/m2
21:24 61.3 °F 55.1 °F 29.92 in WNW 0.8 mph 3 mph 78% 0.00 in 0 W/m2
21:29 61.2 °F 55 °F 29.92 in WNW 0.8 mph 3 mph 78% 0.00 in 0 W/m2
21:34 61 °F 54.9 °F 29.92 in WNW 0.6 mph 3 mph 78% 0.00 in 0 W/m2
21:39 61 °F 54.9 °F 29.92 in Calm     78% 0.00 in 0 W/m2
21:44 60.6 °F 54.7 °F 29.92 in WNW 0.4 mph 3 mph 78% 0.00 in 0 W/m2
21:49 60.5 °F 54.6 °F 29.92 in WNW 0.9 mph 3 mph 78% 0.00 in 0 W/m2
21:54 60.3 °F 54.4 °F 29.92 in Calm   2 mph 78% 0.00 in 0 W/m2
21:59 60.3 °F 54.3 °F 29.92 in Calm     78% 0.00 in 0 W/m2
22:04 60.1 °F 54.1 °F 29.92 in WNW 0.4 mph 2 mph 78% 0.00 in 0 W/m2
22:09 60.1 °F 54.3 °F 29.92 in Calm   2 mph 78.4% 0.00 in 0 W/m2
22:14 59.8 °F 54.2 °F 29.92 in Calm     79% 0.00 in 0 W/m2
22:19 59.5 °F 54 °F 29.92 in Calm     79% 0.00 in 0 W/m2
22:24 59.4 °F 54 °F 29.92 in Calm     79.6% 0.00 in 0 W/m2
22:29 59.3 °F 54 °F 29.93 in Calm     80% 0.00 in 0 W/m2
22:34 59 °F 53.8 °F 29.93 in Calm     80% 0.00 in 0 W/m2
22:39 58.7 °F 53.9 °F 29.93 in WNW 0.2 mph 2 mph 81% 0.00 in 0 W/m2
22:44 58.5 °F 53.6 °F 29.93 in Calm     81.2% 0.00 in 0 W/m2
22:49 58.3 °F 53.6 °F 29.93 in Calm     82% 0.00 in 0 W/m2
22:54 58 °F 53.4 °F 29.93 in Calm     82% 0.00 in 0 W/m2
22:59 57.7 °F 53.3 °F 29.93 in Calm     82.4% 0.00 in 0 W/m2
23:04 57.5 °F 53.2 °F 29.93 in Calm     83% 0.00 in 0 W/m2
23:09 57.2 °F 53 °F 29.93 in Calm     83.2% 0.00 in 0 W/m2
23:14 57 °F 53.1 °F 29.93 in Calm     84% 0.00 in 0 W/m2
23:19 56.9 °F 53 °F 29.93 in Calm     84% 0.00 in 0 W/m2
23:24 56.8 °F 52.9 °F 29.93 in Calm     84% 0.00 in 0 W/m2
23:29 56.8 °F 53.2 °F 29.93 in Calm     85% 0.00 in 0 W/m2
23:34 56.8 °F 53.2 °F 29.93 in Calm     85% 0.00 in 0 W/m2
23:39 56.8 °F 53.2 °F 29.93 in Calm     85% 0.00 in 0 W/m2
23:44 56.8 °F 53.2 °F 29.93 in Calm     85% 0.00 in 0 W/m2
23:49 56.8 °F 53.2 °F 29.93 in Calm     85% 0.00 in 0 W/m2
23:54 56.8 °F 53.2 °F 29.93 in Calm     85% 0.00 in 0 W/m2
23:59 56.7 °F 53.1 °F 29.93 in Calm     85% 0.00 in 0 W/m2
Bath Spa Weather
Compliments of Weather Underground - 2 mb